WetterOnline ( http://www.wetteronline.de )

Wetter aktuell Freiburg

Aktuelles Wetter: Freiburg/Flugplatz (236m)

6-stündlich | Neueste Meldungen
Ortszeit Temperatur Wetter
Di, 16.10. 20:00 13.2° C bedeckt
Di, 16.10. 14:00 20.4° C wolkenlos
Di, 16.10. 8:00 5.2° C wolkig
Di, 16.10. 2:00 7.3° C fast wolkenlos
Mo, 15.10. 20:00 14.7° C wolkenlos
Mo, 15.10. 14:00 21.8° C wolkenlos
Mo, 15.10. 8:00 6.3° C wolkenlos
Mo, 15.10. 2:00 7.4° C wolkenlos
Ortszeit Temperatur Wetter
Mi, 17.10. 1:30 8.3° C fast wolkenlos
Mi, 17.10. 1:20 8.3° C fast wolkenlos
Mi, 17.10. 1:10 8.0° C leicht bewölkt
Mi, 17.10. 1:00 7.7° C fast wolkenlos
Mi, 17.10. 0:50 7.7° C fast wolkenlos
Mi, 17.10. 0:40 7.7° C leicht bewölkt
Mi, 17.10. 0:30 8.3° C fast wolkenlos
Mi, 17.10. 0:00 8.5° C fast wolkenlos
Di, 16.10. 23:30 10.1° C fast wolkenlos
Di, 16.10. 23:00 9.9° C fast wolkenlos
Di, 16.10. 22:30 10.0° C wolkenlos
Ortszeit Relative Feuchte Sichtweite
Di, 16.10. 20:00 79% 18 km
Di, 16.10. 14:00 45% 25 km
Di, 16.10. 8:00 98% 5.0 km
Di, 16.10. 2:00 93% 17 km
Mo, 15.10. 20:00 73% 30 km
Mo, 15.10. 14:00 43% 40 km
Mo, 15.10. 8:00 89% 19 km
Mo, 15.10. 2:00 87% 26 km
Ortszeit Relative Feuchte Sichtweite
Mi, 17.10. 1:30 95% 8 km
Mi, 17.10. 1:20 95% -
Mi, 17.10. 1:10 93% -
Mi, 17.10. 1:00 95% 9 km
Mi, 17.10. 0:50 95% -
Mi, 17.10. 0:40 93% -
Mi, 17.10. 0:30 90% 12 km
Mi, 17.10. 0:00 88% 12 km
Di, 16.10. 23:30 89% 13 km
Di, 16.10. 23:00 90% 14 km
Di, 16.10. 22:30 94% 14 km
Ortszeit Niederschlagsmenge Niederschlagsart
Di, 16.10. 20:00 0.0 l/m2 in 12 Std. -
Di, 16.10. 14:00 0.0 l/m2 in 6 Std. -
Di, 16.10. 8:00 0.0 l/m2 in 12 Std. -
Di, 16.10. 2:00 0.0 l/m2 in 6 Std. -
Mo, 15.10. 20:00 0.0 l/m2 in 12 Std. -
Mo, 15.10. 14:00 0.0 l/m2 in 6 Std. -
Mo, 15.10. 8:00 0.0 l/m2 in 12 Std. -
Mo, 15.10. 2:00 0.0 l/m2 in 6 Std. -
Ortszeit Niederschlagsmenge Niederschlagsart
Mi, 17.10. 1:30 0.0 l/m2 in 1 Std. -
Mi, 17.10. 1:20 keine Meldung -
Mi, 17.10. 1:10 keine Meldung -
Mi, 17.10. 1:00 0.0 l/m2 in 1 Std. -
Mi, 17.10. 0:50 keine Meldung -
Mi, 17.10. 0:40 keine Meldung -
Mi, 17.10. 0:30 0.0 l/m2 in 1 Std. -
Mi, 17.10. 0:00 0.0 l/m2 in 1 Std. -
Di, 16.10. 23:30 0.0 l/m2 in 1 Std. -
Di, 16.10. 23:00 0.0 l/m2 in 1 Std. -
Di, 16.10. 22:30 0.0 l/m2 in 1 Std. -
Ortszeit Stärke Spitze Richtung
km/h Bft. km/h Grad Sektor
Di, 16.10. 20:00 0 0 14 - -
Di, 16.10. 14:00 7 2 11 330° NW
Di, 16.10. 8:00 0 0 7 - -
Di, 16.10. 2:00 4 1 7 240° SW
Mo, 15.10. 20:00 4 1 25 230° SW
Mo, 15.10. 14:00 7 2 14 350° N
Mo, 15.10. 8:00 2 1 7 320° NW
Mo, 15.10. 2:00 0 0 7 - -
Ortszeit Stärke Spitze Richtung
km/h Bft. km/h Grad Sektor
Mi, 17.10. 1:30 4 1 4 210° SW
Mi, 17.10. 1:20 4 1 - 210° SW
Mi, 17.10. 1:10 2 1 - 220° SW
Mi, 17.10. 1:00 4 1 7 340° N
Mi, 17.10. 0:50 4 1 - 340° N
Mi, 17.10. 0:40 4 1 - 330° NW
Mi, 17.10. 0:30 2 1 6 20° N
Mi, 17.10. 0:00 4 1 11 170° S
Di, 16.10. 23:30 9 2 11 350° N
Di, 16.10. 23:00 4 1 7 40° NO
Di, 16.10. 22:30 4 1 7 20° N
Ortszeit Untergrenze Bedeckung Gattung
total tief tief mittel hoch
Di, 16.10. 20:00 6300 m 8/8 8/8 - - -
Di, 16.10. 14:00 7800 m 0/8 0/8 - - -
Di, 16.10. 8:00 9000 m 8/8 0/8 - - -
Di, 16.10. 2:00 10500 m 1/8 0/8 - - -
Mo, 15.10. 20:00 3000 m 0/8 0/8 - - -
Mo, 15.10. 14:00 - 0/8 0/8 - - -
Mo, 15.10. 8:00 - 0/8 0/8 - - -
Mo, 15.10. 2:00 - 0/8 0/8 - - -
Ortszeit Bedeckungsgrad in Achtel und Wolkenuntergrenze
Mi, 17.10. 1:30 1(2700m)
Mi, 17.10. 1:20 1(2700m)
Mi, 17.10. 1:10 2(2700m)
Mi, 17.10. 1:00 1(2700m) 9 9
Mi, 17.10. 0:50 1(2700m)
Mi, 17.10. 0:40 2(2700m)
Mi, 17.10. 0:30 1(3000m)
Mi, 17.10. 0:00 1(2700m)
Di, 16.10. 23:30 1(2700m)
Di, 16.10. 23:00 1(2700m)
Di, 16.10. 22:30 keine Wolken
Ortszeit Luftdruck NN (hPa) Tendenz (hPa in 3 Std.)
Di, 16.10. 20:00 1019 + 0,7
Di, 16.10. 14:00 1018 - 0,3
Di, 16.10. 8:00 1019 + 0,7
Di, 16.10. 2:00 1017 + 0,9
Mo, 15.10. 20:00 1014 + 1,5
Mo, 15.10. 14:00 1012 - 1,2
Mo, 15.10. 8:00 1015 + 0,8
Mo, 15.10. 2:00 1014 + 1,0
Ortszeit Luftdruck NN (hPa) Tendenz (hPa in 3 Std.)
Mi, 17.10. 1:30 1020 + 0,1
Mi, 17.10. 1:20 1020 keine Meldung
Mi, 17.10. 1:10 1020 keine Meldung
Mi, 17.10. 1:00 1020 + 0,3
Mi, 17.10. 0:50 1020 keine Meldung
Mi, 17.10. 0:40 1020 keine Meldung
Mi, 17.10. 0:30 1020 + 0,2
Mi, 17.10. 0:00 1020 + 0,3
Di, 16.10. 23:30 1020 + 0,6
Di, 16.10. 23:00 1020 + 0,5
Di, 16.10. 22:30 1020 + 0,6
Ortszeit Schneehöhe (cm)
Di, 16.10. 20:00 0
Di, 16.10. 14:00 0
Di, 16.10. 8:00 0
Di, 16.10. 2:00 0
Mo, 15.10. 20:00 0
Mo, 15.10. 14:00 0
Mo, 15.10. 8:00 0
Mo, 15.10. 2:00 0
Ortszeit Schneehöhe (cm)
Mi, 17.10. 1:30 0
Mi, 17.10. 1:20 0
Mi, 17.10. 1:10 0
Mi, 17.10. 1:00 0
Mi, 17.10. 0:50 0
Mi, 17.10. 0:40 0
Mi, 17.10. 0:30 0
Mi, 17.10. 0:00 0
Di, 16.10. 23:30 0
Di, 16.10. 23:00 0
Di, 16.10. 22:30 0
Link zu dieser Seite / Seite empfehlen

Das Wetter in ...